createdAt,value
2018-11-27T00:00:29.729Z,4.45
2018-11-27T00:01:29.690Z,4.39
2018-11-27T00:02:29.808Z,4.41
2018-11-27T00:03:29.704Z,4.41
2018-11-27T00:04:30.541Z,4.39
2018-11-27T00:05:29.885Z,4.38
2018-11-27T00:06:30.058Z,4.44
2018-11-27T00:07:29.844Z,4.45
2018-11-27T00:08:29.652Z,4.38
2018-11-27T00:09:29.790Z,4.22
2018-11-27T00:10:29.666Z,4.26
2018-11-27T00:11:29.603Z,4.31
2018-11-27T00:12:29.663Z,4.36
2018-11-27T00:13:29.764Z,4.36
2018-11-27T00:14:29.742Z,4.34
2018-11-27T00:15:29.648Z,4.35
2018-11-27T00:16:31.085Z,4.32
2018-11-27T00:17:29.720Z,4.29
2018-11-27T00:18:29.647Z,4.29
2018-11-27T00:19:29.690Z,4.23
2018-11-27T00:20:29.645Z,4.29
2018-11-27T00:21:29.609Z,4.34
2018-11-27T00:22:30.465Z,4.18
2018-11-27T00:23:29.711Z,4.24
2018-11-27T00:24:30.085Z,4.24
2018-11-27T00:25:29.839Z,4.29
2018-11-27T00:26:29.733Z,4.3
2018-11-27T00:27:29.782Z,4.28
2018-11-27T00:28:29.742Z,4.33
2018-11-27T00:29:29.823Z,4.32
2018-11-27T00:30:29.645Z,4.33
2018-11-27T00:31:29.672Z,4.38
2018-11-27T00:32:29.731Z,4.37
2018-11-27T00:33:29.630Z,4.25
2018-11-27T00:34:29.631Z,4.29
2018-11-27T00:35:29.986Z,4.27
2018-11-27T00:36:29.774Z,4.27
2018-11-27T00:37:29.766Z,4.33
2018-11-27T00:38:29.656Z,4.29
2018-11-27T00:39:29.616Z,4.29
2018-11-27T00:40:29.696Z,4.29
2018-11-27T00:41:29.656Z,4.28
2018-11-27T00:42:29.681Z,4.18
2018-11-27T00:43:29.616Z,4.28
2018-11-27T00:44:29.675Z,4.31
2018-11-27T00:45:29.634Z,4.22
2018-11-27T00:46:29.735Z,4.34
2018-11-27T00:47:29.779Z,4.34
2018-11-27T00:48:30.120Z,4.23
2018-11-27T00:49:29.727Z,4.19
2018-11-27T00:50:29.809Z,4.26
2018-11-27T00:51:29.611Z,4.26
2018-11-27T00:52:29.582Z,4.17
2018-11-27T00:53:29.581Z,4.16
2018-11-27T00:54:29.573Z,4.17
2018-11-27T00:55:29.664Z,4.15
2018-11-27T00:56:29.554Z,4.2
2018-11-27T00:57:29.596Z,4.07
2018-11-27T00:58:29.633Z,4.21
2018-11-27T00:59:29.541Z,4.22
2018-11-27T01:00:29.627Z,4.22
2018-11-27T01:01:29.565Z,4.3
2018-11-27T01:02:29.631Z,4.31
2018-11-27T01:03:29.579Z,4.31
2018-11-27T01:04:29.757Z,4.22
2018-11-27T01:05:29.596Z,4.24
2018-11-27T01:06:29.636Z,4.25
2018-11-27T01:07:29.611Z,4.23
2018-11-27T01:08:29.649Z,4.12
2018-11-27T01:09:29.844Z,4.04
2018-11-27T01:10:29.785Z,4.06
2018-11-27T01:11:29.574Z,4.09
2018-11-27T01:12:29.786Z,3.97
2018-11-27T01:13:29.571Z,3.99
2018-11-27T01:14:29.659Z,4.08
2018-11-27T01:15:29.536Z,4.01
2018-11-27T01:16:29.555Z,4.09
2018-11-27T01:17:29.609Z,4.04
2018-11-27T01:18:29.654Z,3.99
2018-11-27T01:19:29.642Z,4.1
2018-11-27T01:20:29.721Z,4.15
2018-11-27T01:21:29.639Z,4.15
2018-11-27T01:22:30.365Z,4.11
2018-11-27T01:23:29.818Z,4.13
2018-11-27T01:24:29.582Z,4.06
2018-11-27T01:25:29.649Z,4.07
2018-11-27T01:26:29.713Z,4.15
2018-11-27T01:27:29.554Z,4.13
2018-11-27T01:28:29.658Z,4.07
2018-11-27T01:29:29.791Z,4
2018-11-27T01:30:29.907Z,4.02
2018-11-27T01:31:29.611Z,4
2018-11-27T01:32:29.568Z,3.95
2018-11-27T01:33:29.729Z,3.96
2018-11-27T01:34:29.581Z,3.99
2018-11-27T01:35:29.648Z,3.98
2018-11-27T01:36:29.508Z,3.95
2018-11-27T01:37:29.602Z,3.99
2018-11-27T01:38:29.634Z,4.04
2018-11-27T01:39:29.644Z,3.96
2018-11-27T01:40:29.559Z,3.91
2018-11-27T01:41:29.571Z,3.93
2018-11-27T01:42:29.672Z,3.91
2018-11-27T01:43:29.500Z,3.91
2018-11-27T01:44:29.724Z,3.86
2018-11-27T01:45:29.821Z,3.85
2018-11-27T01:46:29.724Z,3.84
2018-11-27T01:47:29.585Z,3.97
2018-11-27T01:48:29.557Z,4.01
2018-11-27T01:49:29.465Z,3.82
2018-11-27T01:50:29.711Z,3.82
2018-11-27T01:51:29.616Z,3.89
2018-11-27T01:52:29.677Z,3.93
2018-11-27T01:53:29.467Z,3.97
2018-11-27T01:54:29.500Z,3.97
2018-11-27T01:55:29.644Z,3.94
2018-11-27T01:56:29.524Z,3.77
2018-11-27T01:57:29.613Z,3.77
2018-11-27T01:58:29.519Z,3.69
2018-11-27T01:59:29.489Z,3.65
2018-11-27T02:00:29.542Z,3.67
2018-11-27T02:01:29.463Z,3.73
2018-11-27T02:02:29.515Z,3.8
2018-11-27T02:03:29.669Z,3.79
2018-11-27T02:04:29.500Z,3.77
2018-11-27T02:05:29.596Z,3.73
2018-11-27T02:06:29.592Z,3.79
2018-11-27T02:07:29.551Z,3.84
2018-11-27T02:08:29.558Z,3.83
2018-11-27T02:09:29.607Z,3.81
2018-11-27T02:10:29.516Z,3.81
2018-11-27T02:11:29.906Z,3.76
2018-11-27T02:12:29.630Z,3.76
2018-11-27T02:13:30.064Z,3.71
2018-11-27T02:14:29.668Z,3.74
2018-11-27T02:15:30.225Z,3.78
2018-11-27T02:16:29.480Z,3.68
2018-11-27T02:17:29.623Z,3.65
2018-11-27T02:18:29.633Z,3.72
2018-11-27T02:19:29.479Z,3.65
2018-11-27T02:20:29.490Z,3.72
2018-11-27T02:21:29.460Z,3.77
2018-11-27T02:22:29.471Z,3.75
2018-11-27T02:23:29.500Z,3.65
2018-11-27T02:24:29.510Z,3.55
2018-11-27T02:25:29.493Z,3.54
2018-11-27T02:26:29.468Z,3.63
2018-11-27T02:27:29.488Z,3.68
2018-11-27T02:28:29.436Z,3.69
2018-11-27T02:29:29.532Z,3.68
2018-11-27T02:30:29.540Z,3.6
2018-11-27T02:31:29.518Z,3.59
2018-11-27T02:32:29.451Z,3.62
2018-11-27T02:33:29.452Z,3.64
2018-11-27T02:34:29.536Z,3.69
2018-11-27T02:35:29.747Z,3.71
2018-11-27T02:36:29.719Z,3.71
2018-11-27T02:37:29.468Z,3.72
2018-11-27T02:38:29.700Z,3.61
2018-11-27T02:39:29.597Z,3.63
2018-11-27T02:40:29.580Z,3.64
2018-11-27T02:41:29.574Z,3.69
2018-11-27T02:42:29.548Z,3.63
2018-11-27T02:43:29.819Z,3.68
2018-11-27T02:44:29.616Z,3.62
2018-11-27T02:45:29.507Z,3.6
2018-11-27T02:46:29.609Z,3.49
2018-11-27T02:47:29.824Z,3.47
2018-11-27T02:48:29.753Z,3.56
2018-11-27T02:49:29.441Z,3.56
2018-11-27T02:50:29.568Z,3.59
2018-11-27T02:51:29.447Z,3.54
2018-11-27T02:52:29.653Z,3.51
2018-11-27T02:53:29.645Z,3.45
2018-11-27T02:54:29.729Z,3.53
2018-11-27T02:55:29.607Z,3.5
2018-11-27T02:56:29.478Z,3.51
2018-11-27T02:57:29.438Z,3.53
2018-11-27T02:58:29.628Z,3.63
2018-11-27T02:59:29.498Z,3.61
2018-11-27T03:00:29.460Z,3.58
2018-11-27T03:01:29.428Z,3.62
2018-11-27T03:02:29.624Z,3.6
2018-11-27T03:03:29.656Z,3.55
2018-11-27T03:04:29.656Z,3.52
2018-11-27T03:05:29.423Z,3.55
2018-11-27T03:06:29.406Z,3.63
2018-11-27T03:07:29.671Z,3.61
2018-11-27T03:08:29.527Z,3.52
2018-11-27T03:09:29.463Z,3.59
2018-11-27T03:10:29.456Z,3.63
2018-11-27T03:11:29.592Z,3.58
2018-11-27T03:12:29.606Z,3.62
2018-11-27T03:13:29.495Z,3.62
2018-11-27T03:14:29.669Z,3.65
2018-11-27T03:15:29.593Z,3.61
2018-11-27T03:16:29.412Z,3.56
2018-11-27T03:17:29.459Z,3.49
2018-11-27T03:18:29.630Z,3.61
2018-11-27T03:19:29.446Z,3.55
2018-11-27T03:20:29.739Z,3.53
2018-11-27T03:21:29.670Z,3.62
2018-11-27T03:22:29.372Z,3.62
2018-11-27T03:23:29.448Z,3.61
2018-11-27T03:24:29.398Z,3.59
2018-11-27T03:25:29.581Z,3.65
2018-11-27T03:26:29.805Z,3.4
2018-11-27T03:27:29.530Z,3.48
2018-11-27T03:28:29.444Z,3.59
2018-11-27T03:29:29.846Z,3.33
2018-11-27T03:30:29.819Z,3.43
2018-11-27T03:31:29.625Z,3.4
2018-11-27T03:32:29.365Z,3.44
2018-11-27T03:33:29.661Z,3.5
2018-11-27T03:34:29.335Z,3.54
2018-11-27T03:35:29.510Z,3.59
2018-11-27T03:36:29.348Z,3.53
2018-11-27T03:37:29.354Z,3.53
2018-11-27T03:38:29.353Z,3.56
2018-11-27T03:39:29.713Z,3.41
2018-11-27T03:40:29.651Z,3.33
2018-11-27T03:41:29.536Z,3.39
2018-11-27T03:42:29.598Z,3.34
2018-11-27T03:43:29.498Z,3.42
2018-11-27T03:44:29.686Z,3.41
2018-11-27T03:45:29.572Z,3.44
2018-11-27T03:46:29.385Z,3.43
2018-11-27T03:47:29.391Z,3.38
2018-11-27T03:48:29.601Z,3.37
2018-11-27T03:49:29.373Z,3.32
2018-11-27T03:50:29.942Z,3.39
2018-11-27T03:51:29.557Z,3.39
2018-11-27T03:52:29.401Z,3.41
2018-11-27T03:53:29.398Z,3.44
2018-11-27T03:54:29.371Z,3.37
2018-11-27T03:55:29.362Z,3.36
2018-11-27T03:56:29.385Z,3.4
2018-11-27T03:57:29.453Z,3.45
2018-11-27T03:58:29.344Z,3.47
2018-11-27T03:59:29.370Z,3.45
2018-11-27T04:00:29.414Z,3.48
2018-11-27T04:01:29.425Z,3.53
2018-11-27T04:02:29.325Z,3.44
2018-11-27T04:03:29.537Z,3.52
2018-11-27T04:04:29.331Z,3.53
2018-11-27T04:05:29.537Z,3.54
2018-11-27T04:06:29.318Z,3.44
2018-11-27T04:07:29.299Z,3.48
2018-11-27T04:08:29.371Z,3.45
2018-11-27T04:09:29.305Z,3.4
2018-11-27T04:10:29.326Z,3.18
2018-11-27T04:11:29.308Z,3.18
2018-11-27T04:12:29.313Z,3.24
2018-11-27T04:13:29.360Z,3.25
2018-11-27T04:14:29.309Z,3.26
2018-11-27T04:15:29.412Z,3.27
2018-11-27T04:16:29.564Z,3.27
2018-11-27T04:17:29.455Z,3.31
2018-11-27T04:18:29.501Z,3.36
2018-11-27T04:19:29.420Z,3.29
2018-11-27T04:20:29.528Z,3.38
2018-11-27T04:21:29.452Z,3.29
2018-11-27T04:22:29.530Z,3.42
2018-11-27T04:23:29.552Z,3.34
2018-11-27T04:24:29.303Z,3.38
2018-11-27T04:25:29.311Z,3.33
2018-11-27T04:26:29.493Z,3.32
2018-11-27T04:27:29.318Z,3.41
2018-11-27T04:28:29.510Z,3.41
2018-11-27T04:29:29.426Z,3.41
2018-11-27T04:30:29.412Z,3.49
2018-11-27T04:31:29.447Z,3.53
2018-11-27T04:32:29.304Z,3.46
2018-11-27T04:33:29.361Z,3.47
2018-11-27T04:34:29.320Z,3.42
2018-11-27T04:35:29.278Z,3.41
2018-11-27T04:36:29.554Z,3.46
2018-11-27T04:37:29.311Z,3.53
2018-11-27T04:38:29.292Z,3.51
2018-11-27T04:39:29.437Z,3.41
2018-11-27T04:40:29.436Z,3.47
2018-11-27T04:41:29.298Z,3.49
2018-11-27T04:42:29.374Z,3.35
2018-11-27T04:43:29.395Z,3.27
2018-11-27T04:44:29.373Z,3.27
2018-11-27T04:45:29.342Z,3.31
2018-11-27T04:46:29.313Z,3.33
2018-11-27T04:47:29.280Z,3.3
2018-11-27T04:48:29.382Z,3.41
2018-11-27T04:49:29.414Z,3.38
2018-11-27T04:50:30.103Z,3.4
2018-11-27T04:51:29.306Z,3.37
2018-11-27T04:52:29.395Z,3.34
2018-11-27T04:53:29.272Z,3.38
2018-11-27T04:54:29.293Z,3.35
2018-11-27T04:55:29.276Z,3.36
2018-11-27T04:56:29.377Z,3.39
2018-11-27T04:57:29.480Z,3.34
2018-11-27T04:58:29.546Z,3.34
2018-11-27T04:59:29.449Z,3.34
2018-11-27T05:00:29.388Z,3.4
2018-11-27T05:01:29.423Z,3.34
2018-11-27T05:02:30.621Z,3.33
2018-11-27T05:03:29.233Z,3.28
2018-11-27T05:04:29.313Z,3.37
2018-11-27T05:05:29.391Z,3.38
2018-11-27T05:06:29.415Z,3.39
2018-11-27T05:07:29.280Z,3.21
2018-11-27T05:08:29.262Z,3.23
2018-11-27T05:09:29.308Z,3.27
2018-11-27T05:10:29.258Z,3.29
2018-11-27T05:11:29.282Z,3.24
2018-11-27T05:12:29.295Z,3.19
2018-11-27T05:13:29.571Z,3.17
2018-11-27T05:14:29.203Z,3.17
2018-11-27T05:15:29.292Z,3.19
2018-11-27T05:16:29.258Z,3.23
2018-11-27T05:17:29.419Z,3.23
2018-11-27T05:18:29.449Z,3.31
2018-11-27T05:19:29.358Z,3.3
2018-11-27T05:20:29.294Z,3.38
2018-11-27T05:21:29.305Z,3.32
2018-11-27T05:22:29.240Z,3.34
2018-11-27T05:23:29.384Z,3.26
2018-11-27T05:24:29.358Z,3.31
2018-11-27T05:25:29.210Z,3.34
2018-11-27T05:26:29.443Z,3.37
2018-11-27T05:27:29.586Z,3.38
2018-11-27T05:28:29.368Z,3.4
2018-11-27T05:29:29.276Z,3.32
2018-11-27T05:30:29.231Z,3.32
2018-11-27T05:31:29.227Z,3.3
2018-11-27T05:32:29.230Z,3.3
2018-11-27T05:33:29.218Z,3.24
2018-11-27T05:34:29.345Z,3.29
2018-11-27T05:35:29.229Z,3.3
2018-11-27T05:36:29.240Z,3.37
2018-11-27T05:37:29.277Z,3.29
2018-11-27T05:38:29.180Z,3.35
2018-11-27T05:39:29.233Z,3.37
2018-11-27T05:40:29.216Z,3.4
2018-11-27T05:41:29.253Z,3.41
2018-11-27T05:42:29.227Z,3.41
2018-11-27T05:43:29.205Z,3.45
2018-11-27T05:44:29.204Z,3.39
2018-11-27T05:45:29.173Z,3.42
2018-11-27T05:46:29.202Z,3.38
2018-11-27T05:47:29.247Z,3.37
2018-11-27T05:48:29.232Z,3.41
2018-11-27T05:49:29.565Z,3.41
2018-11-27T05:50:29.215Z,3.36
2018-11-27T05:51:29.193Z,3.42
2018-11-27T05:52:29.212Z,3.43
2018-11-27T05:53:29.257Z,3.47
2018-11-27T05:54:29.279Z,3.49
2018-11-27T05:55:29.227Z,3.48
2018-11-27T05:56:29.297Z,3.47
2018-11-27T05:57:29.348Z,3.33
2018-11-27T05:58:29.269Z,3.31
2018-11-27T05:59:29.320Z,3.31
2018-11-27T06:00:29.266Z,3.36
2018-11-27T06:01:29.240Z,3.36
2018-11-27T06:02:29.212Z,3.34
2018-11-27T06:03:29.667Z,3.47
2018-11-27T06:04:29.261Z,3.45
2018-11-27T06:05:29.284Z,3.44
2018-11-27T06:06:29.364Z,3.46
2018-11-27T06:07:29.261Z,3.52
2018-11-27T06:08:29.195Z,3.57
2018-11-27T06:09:29.322Z,3.5
2018-11-27T06:10:29.409Z,3.47
2018-11-27T06:11:29.694Z,3.45
2018-11-27T06:12:29.596Z,3.38
2018-11-27T06:13:29.230Z,3.35
2018-11-27T06:14:29.201Z,3.41
2018-11-27T06:15:29.207Z,3.4
2018-11-27T06:16:29.169Z,3.41
2018-11-27T06:17:29.391Z,3.48
2018-11-27T06:18:29.346Z,3.48
2018-11-27T06:19:29.285Z,3.56
2018-11-27T06:20:29.397Z,3.49
2018-11-27T06:21:29.488Z,3.49
2018-11-27T06:22:29.179Z,3.47
2018-11-27T06:23:29.419Z,3.41
2018-11-27T06:24:29.338Z,3.36
2018-11-27T06:25:29.196Z,3.3
2018-11-27T06:26:29.201Z,3.27
2018-11-27T06:27:29.223Z,3.4
2018-11-27T06:28:29.200Z,3.49
2018-11-27T06:29:29.369Z,3.47
2018-11-27T06:30:29.859Z,3.48
2018-11-27T06:31:29.261Z,3.49
2018-11-27T06:32:29.191Z,3.46
2018-11-27T06:33:29.300Z,3.5
2018-11-27T06:34:29.306Z,3.53
2018-11-27T06:35:29.215Z,3.47
2018-11-27T06:36:29.158Z,3.52
2018-11-27T06:37:29.258Z,3.53
2018-11-27T06:38:29.344Z,3.44
2018-11-27T06:39:29.296Z,3.43
2018-11-27T06:40:29.199Z,3.48
2018-11-27T06:41:29.379Z,3.48
2018-11-27T06:42:29.317Z,3.49
2018-11-27T06:43:29.256Z,3.53
2018-11-27T06:44:29.284Z,3.53
2018-11-27T06:45:29.292Z,3.49
2018-11-27T06:46:29.385Z,3.44
2018-11-27T06:47:29.280Z,3.38
2018-11-27T06:48:29.109Z,3.46
2018-11-27T06:49:29.326Z,3.47
2018-11-27T06:50:29.118Z,3.45
2018-11-27T06:51:29.526Z,3.45
2018-11-27T06:52:29.321Z,3.28
2018-11-27T06:53:29.378Z,3.37
2018-11-27T06:54:29.145Z,3.42
2018-11-27T06:55:29.954Z,3.38
2018-11-27T06:56:29.879Z,3.4
2018-11-27T06:57:29.320Z,3.44
2018-11-27T06:58:29.308Z,3.42
2018-11-27T06:59:29.264Z,3.47
2018-11-27T07:00:29.239Z,3.44
2018-11-27T07:01:29.162Z,3.48
2018-11-27T07:02:29.290Z,3.47
2018-11-27T07:03:29.260Z,3.47
2018-11-27T07:04:29.129Z,3.44
2018-11-27T07:05:29.109Z,3.45
2018-11-27T07:06:29.128Z,3.42
2018-11-27T07:07:29.101Z,3.47
2018-11-27T07:08:29.072Z,3.44
2018-11-27T07:09:29.098Z,3.48
2018-11-27T07:10:29.085Z,3.5
2018-11-27T07:11:29.178Z,3.48
2018-11-27T07:12:29.099Z,3.5
2018-11-27T07:13:29.419Z,3.53
2018-11-27T07:14:29.098Z,3.47
2018-11-27T07:15:29.181Z,3.4
2018-11-27T07:16:29.082Z,3.43
2018-11-27T07:17:29.290Z,3.47
2018-11-27T07:18:29.095Z,3.39
2018-11-27T07:19:29.081Z,3.53
2018-11-27T07:20:29.089Z,3.51
2018-11-27T07:21:29.083Z,3.47
2018-11-27T07:22:29.207Z,3.57
2018-11-27T07:23:29.152Z,3.52
2018-11-27T07:24:29.073Z,3.52
2018-11-27T07:25:29.096Z,3.54
2018-11-27T07:26:29.175Z,3.57
2018-11-27T07:27:29.429Z,3.56
2018-11-27T07:28:29.423Z,3.58
2018-11-27T07:29:29.179Z,3.57
2018-11-27T07:30:29.155Z,3.61
2018-11-27T07:31:29.471Z,3.58
2018-11-27T07:32:29.220Z,3.61
2018-11-27T07:33:29.283Z,3.57
2018-11-27T07:34:31.822Z,3.53
2018-11-27T07:35:29.109Z,3.57
2018-11-27T07:36:29.297Z,3.52
2018-11-27T07:37:29.428Z,3.56
2018-11-27T07:38:29.218Z,3.53
2018-11-27T07:39:29.262Z,3.48
2018-11-27T07:40:29.165Z,3.37
2018-11-27T07:41:29.211Z,3.38
2018-11-27T07:42:29.085Z,3.37
2018-11-27T07:43:29.289Z,3.4
2018-11-27T07:44:29.124Z,3.37
2018-11-27T07:45:29.032Z,3.44
2018-11-27T07:46:29.279Z,3.47
2018-11-27T07:47:29.160Z,3.5
2018-11-27T07:48:29.104Z,3.52
2018-11-27T07:49:29.307Z,3.53
2018-11-27T07:50:29.138Z,3.51
2018-11-27T07:51:29.105Z,3.54
2018-11-27T07:52:29.113Z,3.52
2018-11-27T07:53:29.330Z,3.55
2018-11-27T07:54:29.009Z,3.56
2018-11-27T07:55:29.139Z,3.56
2018-11-27T07:56:29.089Z,3.61
2018-11-27T07:57:29.064Z,3.4
2018-11-27T07:58:29.034Z,3.49
2018-11-27T07:59:29.140Z,3.51
2018-11-27T08:00:29.103Z,3.44
2018-11-27T08:01:29.184Z,3.47
2018-11-27T08:02:29.141Z,3.46
2018-11-27T08:03:29.328Z,3.49
2018-11-27T08:04:29.047Z,3.46
2018-11-27T08:05:29.244Z,3.45
2018-11-27T08:06:29.263Z,3.38
2018-11-27T08:07:29.034Z,3.43
2018-11-27T08:08:29.243Z,3.42
2018-11-27T08:09:29.226Z,3.44
2018-11-27T08:10:29.210Z,3.41
2018-11-27T08:11:29.146Z,3.45
2018-11-27T08:12:29.464Z,3.4
2018-11-27T08:13:29.087Z,3.45
2018-11-27T08:14:29.034Z,3.43
2018-11-27T08:15:29.031Z,3.39
2018-11-27T08:16:29.161Z,3.41
2018-11-27T08:17:29.189Z,3.34
2018-11-27T08:18:29.103Z,3.26
2018-11-27T08:19:29.043Z,3.33
2018-11-27T08:20:29.155Z,3.41
2018-11-27T08:21:29.041Z,3.35
2018-11-27T08:22:28.972Z,3.38
2018-11-27T08:23:29.021Z,3.33
2018-11-27T08:24:29.112Z,3.35
2018-11-27T08:25:29.406Z,3.36
2018-11-27T08:26:29.137Z,3.24
2018-11-27T08:27:28.982Z,3.33
2018-11-27T08:28:29.160Z,3.33
2018-11-27T08:29:29.080Z,3.38
2018-11-27T08:30:29.527Z,3.39
2018-11-27T08:31:28.975Z,3.34
2018-11-27T08:32:29.222Z,3.36
2018-11-27T08:33:29.232Z,3.39
2018-11-27T08:34:29.369Z,3.29
2018-11-27T08:35:29.061Z,3.28
2018-11-27T08:36:28.990Z,3.31
2018-11-27T08:37:28.992Z,3.29
2018-11-27T08:38:29.058Z,3.3
2018-11-27T08:39:29.184Z,3.37
2018-11-27T08:40:29.177Z,3.27
2018-11-27T08:41:29.051Z,3.28
2018-11-27T08:42:28.985Z,3.33
2018-11-27T08:43:29.066Z,3.26
2018-11-27T08:44:29.078Z,3.32
2018-11-27T08:45:28.981Z,3.31
2018-11-27T08:46:29.079Z,3.3
2018-11-27T08:47:29.123Z,3.34
2018-11-27T08:48:28.938Z,3.34
2018-11-27T08:49:29.394Z,3.36
2018-11-27T08:50:29.060Z,3.36
2018-11-27T08:51:29.060Z,3.37
2018-11-27T08:52:29.130Z,3.35
2018-11-27T08:53:29.056Z,3.35
2018-11-27T08:54:28.979Z,3.38
2018-11-27T08:55:29.076Z,3.37
2018-11-27T08:56:29.109Z,3.38
2018-11-27T08:57:28.988Z,3.37
2018-11-27T08:58:28.960Z,3.4
2018-11-27T08:59:28.933Z,3.37
2018-11-27T09:00:29.375Z,3.35
2018-11-27T09:01:28.910Z,3.34
2018-11-27T09:02:28.990Z,3.33
2018-11-27T09:03:29.343Z,3.39
2018-11-27T09:04:29.036Z,3.34
2018-11-27T09:05:29.124Z,3.26
2018-11-27T09:06:28.973Z,3.25
2018-11-27T09:07:29.173Z,3.25
2018-11-27T09:08:29.188Z,3.26
2018-11-27T09:09:29.289Z,3.18
2018-11-27T09:10:29.098Z,3.16
2018-11-27T09:11:28.953Z,3.19
2018-11-27T09:12:28.978Z,3.22
2018-11-27T09:13:28.913Z,3.2
2018-11-27T09:14:29.077Z,3.24
2018-11-27T09:15:29.122Z,3.28
2018-11-27T09:16:28.974Z,3.3
2018-11-27T09:17:29.133Z,3.34
2018-11-27T09:18:29.483Z,3.33
2018-11-27T09:19:29.085Z,3.32
2018-11-27T09:20:28.881Z,3.28
2018-11-27T09:21:29.298Z,3.31
2018-11-27T09:22:29.003Z,3.31
2018-11-27T09:23:29.145Z,3.35
2018-11-27T09:24:29.200Z,3.34
2018-11-27T09:25:29.037Z,3.4
2018-11-27T09:26:29.130Z,3.42
2018-11-27T09:27:28.998Z,3.4
2018-11-27T09:28:29.108Z,3.36
2018-11-27T09:29:29.116Z,3.36
2018-11-27T09:30:29.073Z,3.33
2018-11-27T09:31:29.113Z,3.26
2018-11-27T09:32:29.098Z,3.27
2018-11-27T09:33:29.075Z,3.3
2018-11-27T09:34:28.925Z,3.3
2018-11-27T09:35:29.501Z,3.32
2018-11-27T09:36:28.874Z,3.34
2018-11-27T09:37:29.160Z,3.36
2018-11-27T09:38:29.025Z,3.4
2018-11-27T09:39:29.225Z,3.41
2018-11-27T09:40:29.097Z,3.36
2018-11-27T09:41:28.929Z,3.36
2018-11-27T09:42:29.163Z,3.33
2018-11-27T09:43:28.982Z,3.32
2018-11-27T09:44:28.954Z,3.36
2018-11-27T09:45:28.959Z,3.34
2018-11-27T09:46:29.038Z,3.34
2018-11-27T09:47:28.884Z,3.35
2018-11-27T09:48:28.923Z,3.38
2018-11-27T09:49:29.056Z,3.38
2018-11-27T09:50:29.110Z,3.38
2018-11-27T09:51:28.943Z,3.38
2018-11-27T09:52:29.161Z,3.4
2018-11-27T09:53:28.854Z,3.41
2018-11-27T09:54:29.291Z,3.44
2018-11-27T09:55:29.029Z,3.43
2018-11-27T09:56:28.860Z,3.47
2018-11-27T09:57:28.903Z,3.46
2018-11-27T09:58:29.014Z,3.48
2018-11-27T09:59:29.116Z,3.52
2018-11-27T10:00:28.995Z,3.55
2018-11-27T10:01:28.846Z,3.43
2018-11-27T10:02:29.417Z,3.43
2018-11-27T10:03:28.829Z,3.52
2018-11-27T10:04:28.886Z,3.55
2018-11-27T10:05:29.260Z,3.54
2018-11-27T10:06:28.851Z,3.55
2018-11-27T10:07:28.877Z,3.54
2018-11-27T10:08:29.047Z,3.55
2018-11-27T10:09:29.112Z,3.55
2018-11-27T10:10:29.149Z,3.58
2018-11-27T10:11:28.911Z,3.61
2018-11-27T10:12:29.284Z,3.61
2018-11-27T10:13:28.864Z,3.65
2018-11-27T10:14:28.957Z,3.63
2018-11-27T10:15:28.984Z,3.62
2018-11-27T10:16:28.877Z,3.64
2018-11-27T10:17:29.091Z,3.67
2018-11-27T10:18:29.122Z,3.7
2018-11-27T10:19:29.660Z,3.7
2018-11-27T10:20:29.005Z,3.72
2018-11-27T10:21:28.850Z,3.75
2018-11-27T10:22:28.877Z,3.71
2018-11-27T10:23:28.973Z,3.7
2018-11-27T10:24:29.199Z,3.7
2018-11-27T10:25:28.836Z,3.7
2018-11-27T10:26:28.959Z,3.71
2018-11-27T10:27:28.812Z,3.72
2018-11-27T10:28:32.373Z,3.69
2018-11-27T10:29:28.826Z,3.78
2018-11-27T10:30:28.858Z,3.69
2018-11-27T10:31:28.842Z,3.64
2018-11-27T10:32:29.022Z,3.78
2018-11-27T10:33:28.949Z,3.85
2018-11-27T10:34:28.856Z,3.84
2018-11-27T10:35:28.798Z,3.86
2018-11-27T10:36:28.826Z,3.82
2018-11-27T10:37:28.802Z,3.74
2018-11-27T10:38:28.823Z,3.69
2018-11-27T10:39:28.912Z,3.76
2018-11-27T10:40:28.960Z,3.82
2018-11-27T10:41:28.827Z,3.83
2018-11-27T10:42:30.558Z,3.8
2018-11-27T10:43:28.825Z,3.86
2018-11-27T10:44:29.100Z,3.82
2018-11-27T10:45:28.940Z,3.68
2018-11-27T10:46:28.984Z,3.7
2018-11-27T10:47:28.875Z,3.78
2018-11-27T10:48:29.031Z,3.72
2018-11-27T10:49:28.866Z,3.77
2018-11-27T10:50:28.875Z,3.77
2018-11-27T10:51:28.880Z,3.79
2018-11-27T10:52:28.768Z,3.85
2018-11-27T10:53:28.792Z,3.85
2018-11-27T10:54:29.209Z,3.89
2018-11-27T10:55:28.893Z,3.87
2018-11-27T10:56:28.847Z,3.91
2018-11-27T10:57:29.041Z,3.92
2018-11-27T10:58:28.897Z,3.85
2018-11-27T10:59:29.004Z,3.79
2018-11-27T11:00:29.117Z,3.79
2018-11-27T11:01:28.785Z,3.85
2018-11-27T11:02:28.816Z,3.85
2018-11-27T11:03:28.756Z,3.81
2018-11-27T11:04:28.900Z,3.92
2018-11-27T11:05:28.931Z,3.9
2018-11-27T11:06:29.094Z,3.91
2018-11-27T11:07:28.756Z,3.9
2018-11-27T11:08:28.865Z,3.98
2018-11-27T11:09:29.170Z,3.98
2018-11-27T11:10:29.433Z,3.97
2018-11-27T11:11:28.847Z,3.94
2018-11-27T11:12:28.946Z,3.93
2018-11-27T11:13:28.826Z,3.94
2018-11-27T11:14:28.743Z,3.89
2018-11-27T11:15:28.866Z,3.93
2018-11-27T11:16:29.871Z,3.95
2018-11-27T11:17:28.805Z,3.96
2018-11-27T11:18:28.774Z,3.95
2018-11-27T11:19:28.797Z,3.96
2018-11-27T11:20:28.798Z,3.95
2018-11-27T11:21:28.920Z,3.97
2018-11-27T11:22:29.028Z,3.99
2018-11-27T11:23:28.809Z,3.94
2018-11-27T11:24:28.853Z,3.95
2018-11-27T11:25:28.736Z,3.95
2018-11-27T11:26:28.739Z,3.96
2018-11-27T11:27:28.789Z,3.99
2018-11-27T11:28:28.825Z,3.97
2018-11-27T11:29:28.906Z,3.98
2018-11-27T11:30:29.158Z,3.95
2018-11-27T11:31:28.870Z,4
2018-11-27T11:32:28.989Z,3.97
2018-11-27T11:33:28.864Z,3.95
2018-11-27T11:34:29.207Z,3.99
2018-11-27T11:35:28.702Z,3.98
2018-11-27T11:36:29.176Z,3.94
2018-11-27T11:37:28.803Z,3.92
2018-11-27T11:38:29.099Z,3.89
2018-11-27T11:39:28.767Z,3.89
2018-11-27T11:40:29.385Z,3.92
2018-11-27T11:41:31.650Z,3.92
2018-11-27T11:42:28.826Z,3.97
2018-11-27T11:43:28.862Z,3.98
2018-11-27T11:44:28.733Z,3.99
2018-11-27T11:45:28.774Z,3.84
2018-11-27T11:46:28.747Z,3.73
2018-11-27T11:47:28.730Z,3.74
2018-11-27T11:48:29.103Z,3.75
2018-11-27T11:49:29.034Z,3.58
2018-11-27T11:50:28.804Z,3.68
2018-11-27T11:51:29.119Z,3.69
2018-11-27T11:52:28.779Z,3.69
2018-11-27T11:53:28.721Z,3.74
2018-11-27T11:54:28.818Z,3.8
2018-11-27T11:55:28.790Z,3.84
2018-11-27T11:56:28.913Z,3.83
2018-11-27T11:57:28.779Z,3.91
2018-11-27T11:58:28.694Z,3.88
2018-11-27T11:59:29.116Z,3.92
2018-11-27T12:00:28.678Z,3.89
2018-11-27T12:01:28.676Z,3.65
2018-11-27T12:02:34.158Z,3.55
2018-11-27T12:03:28.711Z,3.6
2018-11-27T12:04:28.733Z,3.68
2018-11-27T12:05:28.715Z,3.77
2018-11-27T12:06:28.681Z,3.75
2018-11-27T12:07:28.785Z,3.76
2018-11-27T12:08:28.823Z,3.82
2018-11-27T12:09:28.694Z,3.79
2018-11-27T12:10:29.067Z,3.82
2018-11-27T12:11:28.688Z,3.83
2018-11-27T12:12:28.719Z,3.52
2018-11-27T12:13:28.757Z,3.57
2018-11-27T12:14:28.631Z,3.64
2018-11-27T12:15:28.672Z,3.63
2018-11-27T12:16:28.885Z,3.64
2018-11-27T12:17:28.674Z,3.71
2018-11-27T12:18:28.669Z,3.7
2018-11-27T12:19:28.697Z,3.74
2018-11-27T12:20:29.016Z,3.68
2018-11-27T12:21:28.693Z,3.71
2018-11-27T12:22:28.904Z,3.66
2018-11-27T12:23:28.726Z,3.69
2018-11-27T12:24:28.684Z,3.7
2018-11-27T12:25:28.655Z,3.49
2018-11-27T12:26:28.679Z,3.58
2018-11-27T12:27:29.377Z,3.51
2018-11-27T12:28:28.820Z,3.46
2018-11-27T12:29:28.821Z,3.47
2018-11-27T12:30:28.660Z,3.44
2018-11-27T12:31:28.766Z,3.45
2018-11-27T12:32:28.792Z,3.44
2018-11-27T12:33:28.664Z,3.42
2018-11-27T12:34:28.735Z,3.44
2018-11-27T12:35:28.748Z,3.5
2018-11-27T12:36:28.737Z,3.52
2018-11-27T12:37:28.702Z,3.47
2018-11-27T12:38:28.785Z,3.49
2018-11-27T12:39:28.633Z,3.51
2018-11-27T12:40:28.779Z,3.58
2018-11-27T12:41:28.805Z,3.6
2018-11-27T12:42:28.641Z,3.61
2018-11-27T12:43:28.732Z,3.61
2018-11-27T12:44:28.646Z,3.53
2018-11-27T12:45:28.739Z,3.52
2018-11-27T12:46:28.713Z,3.53
2018-11-27T12:47:28.703Z,3.56
2018-11-27T12:48:28.676Z,3.62
2018-11-27T12:49:28.960Z,3.56
2018-11-27T12:50:28.666Z,3.6
2018-11-27T12:51:28.690Z,3.64
2018-11-27T12:52:28.801Z,3.62
2018-11-27T12:53:28.621Z,3.57
2018-11-27T12:54:28.703Z,3.6
2018-11-27T12:55:28.721Z,3.5
2018-11-27T12:56:28.733Z,3.53
2018-11-27T12:57:28.605Z,3.51
2018-11-27T12:58:29.052Z,3.58
2018-11-27T12:59:28.713Z,3.57
2018-11-27T13:00:28.606Z,3.58
2018-11-27T13:01:28.737Z,3.51
2018-11-27T13:02:28.789Z,3.52
2018-11-27T13:03:28.651Z,3.51
2018-11-27T13:04:28.777Z,3.5
2018-11-27T13:05:28.940Z,3.5
2018-11-27T13:06:28.695Z,3.52
2018-11-27T13:07:28.700Z,3.54
2018-11-27T13:08:28.848Z,3.52
2018-11-27T13:09:28.640Z,3.53
2018-11-27T13:10:28.800Z,3.51
2018-11-27T13:11:28.630Z,3.52
2018-11-27T13:12:28.814Z,3.53
2018-11-27T13:13:28.657Z,3.55
2018-11-27T13:14:28.753Z,3.54
2018-11-27T13:15:28.675Z,3.53
2018-11-27T13:16:28.599Z,3.55
2018-11-27T13:17:28.750Z,3.57
2018-11-27T13:18:28.692Z,3.57
2018-11-27T13:19:28.873Z,3.52
2018-11-27T13:20:28.677Z,3.49
2018-11-27T13:21:28.638Z,3.48